CST,Max TemperatureF,Mean TemperatureF,Min TemperatureF,Max Dew PointF,MeanDew PointF,Min DewpointF,Max Humidity, Mean Humidity, Min Humidity, Max Sea Level PressureIn, Mean Sea Level PressureIn, Min Sea Level PressureIn, Max VisibilityMiles, Mean VisibilityMiles, Min VisibilityMiles, Max Wind SpeedMPH, Mean Wind SpeedMPH, Max Gust SpeedMPH,PrecipitationIn, CloudCover, Events, WindDirDegrees
2013-2-1,12,6,-1,9,0,-8,83,70,57,30.38,30.28,30.15,10,7,2,18,10,28,T,3,Snow,241
2013-2-2,20,13,5,18,9,-2,91,76,61,30.18,30.07,29.99,10,4,0,14,7,21,0.02,7,Fog-Snow,270
2013-2-3,21,14,7,14,8,-1,83,70,56,30.09,30.01,29.92,10,6,2,17,6,26,T,7,Snow,265
2013-2-4,26,18,10,22,16,1,92,79,66,30.06,29.94,29.87,10,4,1,16,6,21,T,7,Snow,355
2013-2-5,29,16,2,23,17,-1,86,76,66,30.12,29.89,29.77,10,5,0,20,7,29,T,7,Fog-Snow,248
2013-2-6,35,20,5,29,18,6,92,74,56,30.27,30.20,30.12,10,7,5,14,4,17,0.00,3,,188
2013-2-7,33,31,29,32,31,28,100,91,82,30.13,29.98,29.87,4,2,0,17,7,28,0.10,8,Fog-Rain-Snow,109
2013-2-8,29,25,20,25,21,19,100,91,81,30.43,30.22,29.96,10,7,2,15,7,25,T,8,Rain-Snow,315
2013-2-9,33,24,14,28,20,14,100,86,72,30.43,30.31,30.12,10,6,2,16,5,18,0.00,4,,198
2013-2-10,45,35,25,43,35,24,100,88,76,30.11,29.72,29.48,10,6,2,29,13,35,0.79,7,Rain,149
2013-2-11,42,35,28,32,24,19,76,70,63,30.02,29.72,29.48,10,9,3,33,16,46,T,8,Rain-Snow,246
2013-2-12,28,23,17,19,17,15,92,80,68,30.12,30.04,29.94,10,9,5,18,7,22,0.00,5,,252
2013-2-13,43,32,20,30,25,18,92,73,53,29.92,29.79,29.73,9,6,3,12,5,14,0.00,1,,226
2013-2-14,38,33,27,32,27,20,89,73,56,30.00,29.76,29.63,10,9,6,20,9,29,T,7,,248
2013-2-15,29,23,17,25,15,6,81,62,42,30.21,30.12,29.99,10,8,2,13,6,18,0.01,4,Snow,312
2013-2-16,18,12,5,9,3,-2,76,60,43,30.25,30.19,30.11,10,8,1,14,7,18,T,4,Snow,300
2013-2-17,28,16,3,14,4,-2,83,60,36,30.27,30.20,30.04,10,10,10,15,6,21,0.00,0,,216
2013-2-18,50,39,28,45,33,16,93,73,53,30.01,29.61,29.38,10,8,2,23,14,30,0.36,5,Rain-Snow,189
2013-2-19,33,22,10,28,9,-1,84,73,61,30.20,29.81,29.49,10,5,0,21,13,36,0.02,7,Fog-Rain-Snow,266
2013-2-20,22,15,8,10,5,-1,84,70,56,30.41,30.35,30.23,10,10,10,13,8,21,0.00,1,,297
2013-2-21,28,23,17,24,19,10,85,76,67,30.42,30.28,30.02,10,10,2,24,10,31,T,8,Snow,25
2013-2-22,33,29,25,29,26,21,100,91,82,30.04,29.89,29.78,10,3,0,25,11,35,0.04,8,Fog-Snow,141
2013-2-23,29,25,20,25,19,15,88,73,58,29.97,29.92,29.85,10,8,5,15,7,20,0.00,5,,228
2013-2-24,38,27,15,26,18,12,96,74,52,30.18,30.11,29.99,10,8,3,10,3,14,0.00,0,,246
2013-2-25,37,26,15,30,23,13,92,78,64,30.22,30.15,30.03,10,8,4,13,5,17,0.00,1,,82
2013-2-26,35,33,31,32,30,26,100,85,70,29.99,29.68,29.53,10,4,0,24,17,36,0.00,5,Fog-Snow,37
2013-2-27,34,33,32,34,32,30,100,95,89,29.73,29.60,29.51,6,2,0,17,9,26,0.46,8,Fog-Rain-Snow,336
2013-2-28,35,31,27,31,27,19,92,81,69,30.10,29.88,29.69,10,7,2,18,10,28,0.01,8,Snow,339